EJA811 KBNA-KCMH
Flight info
| Callsign | EJA811 |
|---|---|
| Flight time | 0h 49m |
| Altitude | 45000 |
| Route | KRSTA4 OLSIE GETTA JAKTZ2 |
| Aircraft | C700/M-SBDGHM1RWXY/LB2 |
Departure
| Time | 2026-05-05 01:20 |
|---|---|
| Airport | Nashville International Airport (KBNA) |
Arrival
| Time | 2026-05-05 02:09 |
|---|---|
| Airport | John Glenn Columbus International Airport (KCMH) |
| Time | Latitude | Longitude | Altitude | Speed | Heading |
|---|---|---|---|---|---|
| 2026-05-05 01:03 | 36.12011 | -86.67114 | 566 ft | 0 kts | 186° |
| 2026-05-05 01:14 | 36.12007 | -86.67115 | 563 ft | 3 kts | 196° |
| 2026-05-05 01:14 | 36.12010 | -86.67142 | 562 ft | 8 kts | 335° |
| 2026-05-05 01:14 | 36.12083 | -86.67169 | 564 ft | 13 kts | 333° |
| 2026-05-05 01:15 | 36.12150 | -86.67247 | 561 ft | 13 kts | 312° |
| 2026-05-05 01:15 | 36.12212 | -86.67327 | 565 ft | 13 kts | 314° |
| 2026-05-05 01:15 | 36.12278 | -86.67412 | 573 ft | 15 kts | 314° |
| 2026-05-05 01:15 | 36.12334 | -86.67501 | 571 ft | 11 kts | 279° |
| 2026-05-05 01:16 | 36.12291 | -86.67584 | 571 ft | 13 kts | 237° |
| 2026-05-05 01:16 | 36.12329 | -86.67690 | 566 ft | 16 kts | 314° |
| 2026-05-05 01:16 | 36.12371 | -86.67811 | 562 ft | 19 kts | 288° |
| 2026-05-05 01:16 | 36.12385 | -86.67862 | 559 ft | 0 kts | 288° |
| 2026-05-05 01:18 | 36.12385 | -86.67864 | 559 ft | 1 kts | 288° |
| 2026-05-05 01:18 | 36.12399 | -86.67926 | 559 ft | 9 kts | 275° |
| 2026-05-05 01:19 | 36.12364 | -86.67986 | 558 ft | 0 kts | 198° |
| 2026-05-05 01:19 | 36.12251 | -86.68031 | 557 ft | 59 kts | 197° |
| 2026-05-05 01:19 | 36.11541 | -86.68312 | 678 ft | 144 kts | 198° |
| 2026-05-05 01:20 | 36.10598 | -86.68625 | 2114 ft | 117 kts | 195° |
| 2026-05-05 01:20 | 36.09791 | -86.68944 | 3327 ft | 132 kts | 212° |
| 2026-05-05 01:20 | 36.09064 | -86.69686 | 4509 ft | 141 kts | 226° |
| 2026-05-05 01:20 | 36.08519 | -86.70836 | 5517 ft | 170 kts | 246° |
| 2026-05-05 01:21 | 36.08075 | -86.72279 | 6637 ft | 193 kts | 245° |
| 2026-05-05 01:21 | 36.07504 | -86.74001 | 7147 ft | 244 kts | 245° |
| 2026-05-05 01:21 | 36.06990 | -86.76082 | 7264 ft | 256 kts | 258° |
| 2026-05-05 01:21 | 36.06918 | -86.78229 | 8954 ft | 244 kts | 269° |
| 2026-05-05 01:22 | 36.07223 | -86.80333 | 10524 ft | 260 kts | 283° |
| 2026-05-05 01:22 | 36.08046 | -86.82475 | 11481 ft | 294 kts | 299° |
| 2026-05-05 01:22 | 36.09482 | -86.84418 | 12843 ft | 313 kts | 316° |
| 2026-05-05 01:22 | 36.11383 | -86.85812 | 14448 ft | 326 kts | 334° |
| 2026-05-05 01:23 | 36.13638 | -86.86415 | 15881 ft | 340 kts | 352° |
| 2026-05-05 01:23 | 36.16031 | -86.86093 | 17291 ft | 353 kts | 8° |
| 2026-05-05 01:23 | 36.18459 | -86.85381 | 18608 ft | 361 kts | 9° |
| 2026-05-05 01:23 | 36.20914 | -86.84620 | 19799 ft | 366 kts | 9° |
| 2026-05-05 01:24 | 36.23370 | -86.83898 | 20917 ft | 370 kts | 8° |
| 2026-05-05 01:24 | 36.25909 | -86.83180 | 21985 ft | 375 kts | 8° |
| 2026-05-05 01:24 | 36.28471 | -86.82441 | 23106 ft | 380 kts | 8° |
| 2026-05-05 01:24 | 36.31042 | -86.81558 | 24032 ft | 390 kts | 15° |
| 2026-05-05 01:25 | 36.33528 | -86.80096 | 24922 ft | 400 kts | 25° |
| 2026-05-05 01:25 | 36.35822 | -86.78071 | 25785 ft | 411 kts | 36° |
| 2026-05-05 01:25 | 36.37830 | -86.75543 | 26608 ft | 420 kts | 44° |
| 2026-05-05 01:25 | 36.39780 | -86.72817 | 27415 ft | 425 kts | 44° |
| 2026-05-05 01:26 | 36.41761 | -86.70061 | 28250 ft | 430 kts | 44° |
| 2026-05-05 01:26 | 36.43776 | -86.67276 | 29057 ft | 435 kts | 44° |
| 2026-05-05 01:26 | 36.45808 | -86.64459 | 29854 ft | 440 kts | 44° |
| 2026-05-05 01:26 | 36.47860 | -86.61601 | 30533 ft | 446 kts | 44° |
| 2026-05-05 01:27 | 36.49935 | -86.58709 | 31181 ft | 450 kts | 44° |
| 2026-05-05 01:27 | 36.52032 | -86.55791 | 31800 ft | 454 kts | 44° |
| 2026-05-05 01:27 | 36.54148 | -86.52845 | 32355 ft | 459 kts | 44° |
| 2026-05-05 01:27 | 36.56349 | -86.49953 | 32921 ft | 459 kts | 38° |
| 2026-05-05 01:28 | 36.58855 | -86.47521 | 33642 ft | 453 kts | 28° |
| 2026-05-05 01:28 | 36.61566 | -86.45611 | 34364 ft | 444 kts | 19° |
| 2026-05-05 01:28 | 36.64358 | -86.44155 | 34992 ft | 440 kts | 16° |
| 2026-05-05 01:28 | 36.67186 | -86.42710 | 35639 ft | 438 kts | 16° |
| 2026-05-05 01:29 | 36.69996 | -86.41262 | 36272 ft | 436 kts | 15° |
| 2026-05-05 01:29 | 36.72805 | -86.39791 | 36827 ft | 437 kts | 18° |
| 2026-05-05 01:29 | 36.75525 | -86.38048 | 37360 ft | 439 kts | 21° |
| 2026-05-05 01:29 | 36.78226 | -86.36294 | 37881 ft | 437 kts | 20° |
| 2026-05-05 01:30 | 36.80930 | -86.34560 | 38383 ft | 436 kts | 20° |
| 2026-05-05 01:30 | 36.83620 | -86.32827 | 38801 ft | 435 kts | 20° |
| 2026-05-05 01:30 | 36.86308 | -86.31080 | 39115 ft | 435 kts | 20° |
| 2026-05-05 01:30 | 36.88905 | -86.29394 | 39403 ft | 436 kts | 20° |
| 2026-05-05 01:31 | 36.91630 | -86.27628 | 39704 ft | 436 kts | 20° |
| 2026-05-05 01:31 | 36.94327 | -86.25881 | 40033 ft | 436 kts | 20° |
| 2026-05-05 01:31 | 36.97023 | -86.24129 | 40329 ft | 437 kts | 20° |
| 2026-05-05 01:31 | 36.99723 | -86.22372 | 40607 ft | 437 kts | 20° |
| 2026-05-05 01:32 | 37.02425 | -86.20614 | 40878 ft | 437 kts | 20° |
| 2026-05-05 01:32 | 37.05127 | -86.18855 | 41156 ft | 438 kts | 20° |
| 2026-05-05 01:32 | 37.07830 | -86.17094 | 41422 ft | 438 kts | 20° |
| 2026-05-05 01:32 | 37.10502 | -86.15352 | 41614 ft | 440 kts | 20° |
| 2026-05-05 01:33 | 37.13226 | -86.13574 | 41868 ft | 440 kts | 20° |
| 2026-05-05 01:33 | 37.15942 | -86.11798 | 42123 ft | 440 kts | 20° |
| 2026-05-05 01:33 | 37.18659 | -86.10022 | 42387 ft | 441 kts | 20° |
| 2026-05-05 01:33 | 37.21376 | -86.08245 | 42635 ft | 441 kts | 20° |
| 2026-05-05 01:34 | 37.24113 | -86.06533 | 42865 ft | 437 kts | 16° |
| 2026-05-05 01:34 | 37.26902 | -86.05010 | 43089 ft | 437 kts | 16° |
| 2026-05-05 01:34 | 37.29682 | -86.03480 | 43322 ft | 437 kts | 16° |
| 2026-05-05 01:34 | 37.32463 | -86.01930 | 43548 ft | 437 kts | 16° |
| 2026-05-05 01:35 | 37.35255 | -86.00378 | 43765 ft | 437 kts | 16° |
| 2026-05-05 01:35 | 37.38016 | -85.98853 | 43953 ft | 437 kts | 16° |
| 2026-05-05 01:35 | 37.40795 | -85.97314 | 44192 ft | 437 kts | 16° |
| 2026-05-05 01:35 | 37.43586 | -85.95763 | 44397 ft | 438 kts | 16° |
| 2026-05-05 01:36 | 37.46366 | -85.94216 | 44578 ft | 438 kts | 16° |
| 2026-05-05 01:36 | 37.49160 | -85.92662 | 44738 ft | 438 kts | 16° |
| 2026-05-05 01:36 | 37.51952 | -85.91110 | 44839 ft | 439 kts | 16° |
| 2026-05-05 01:36 | 37.54771 | -85.89543 | 44834 ft | 444 kts | 16° |
| 2026-05-05 01:37 | 37.60469 | -85.86362 | 44838 ft | 451 kts | 17° |
| 2026-05-05 01:37 | 37.66219 | -85.83150 | 44833 ft | 459 kts | 17° |
| 2026-05-05 01:38 | 37.72096 | -85.79861 | 44843 ft | 465 kts | 17° |
| 2026-05-05 01:38 | 37.78054 | -85.76519 | 44844 ft | 470 kts | 17° |
| 2026-05-05 01:39 | 37.84020 | -85.73165 | 44827 ft | 467 kts | 17° |
| 2026-05-05 01:39 | 37.89943 | -85.69834 | 44823 ft | 464 kts | 17° |
| 2026-05-05 01:40 | 37.95834 | -85.66513 | 44817 ft | 461 kts | 17° |
| 2026-05-05 01:40 | 38.01706 | -85.63200 | 44813 ft | 463 kts | 17° |
| 2026-05-05 01:41 | 38.07574 | -85.59865 | 44799 ft | 467 kts | 19° |
| 2026-05-05 01:41 | 38.13094 | -85.55268 | 44820 ft | 480 kts | 31° |
| 2026-05-05 01:42 | 38.18422 | -85.50142 | 44822 ft | 481 kts | 31° |
| 2026-05-05 01:42 | 38.23765 | -85.45003 | 44822 ft | 481 kts | 31° |
| 2026-05-05 01:43 | 38.29114 | -85.39843 | 44285 ft | 486 kts | 31° |
| 2026-05-05 01:43 | 38.31810 | -85.37243 | 43710 ft | 486 kts | 31° |
| 2026-05-05 01:43 | 38.34488 | -85.34648 | 43151 ft | 482 kts | 31° |
| 2026-05-05 01:44 | 38.37120 | -85.32095 | 42605 ft | 478 kts | 31° |
| 2026-05-05 01:44 | 38.39752 | -85.29548 | 42071 ft | 473 kts | 31° |
| 2026-05-05 01:44 | 38.42359 | -85.27025 | 41546 ft | 468 kts | 31° |
| 2026-05-05 01:44 | 38.44940 | -85.24519 | 41026 ft | 464 kts | 32° |
| 2026-05-05 01:45 | 38.47502 | -85.22029 | 40531 ft | 461 kts | 32° |
| 2026-05-05 01:45 | 38.49195 | -85.20385 | 40206 ft | 460 kts | 32° |
| 2026-05-05 01:45 | 38.51746 | -85.17906 | 39728 ft | 462 kts | 32° |
| 2026-05-05 01:45 | 38.54314 | -85.15408 | 39262 ft | 465 kts | 32° |
| 2026-05-05 01:46 | 38.56897 | -85.12889 | 38815 ft | 469 kts | 33° |
| 2026-05-05 01:46 | 38.59498 | -85.10351 | 38334 ft | 471 kts | 33° |
| 2026-05-05 01:46 | 38.62107 | -85.07802 | 37780 ft | 472 kts | 33° |
| 2026-05-05 01:46 | 38.64714 | -85.05254 | 37230 ft | 471 kts | 33° |
| 2026-05-05 01:47 | 38.67310 | -85.02714 | 36695 ft | 469 kts | 33° |
| 2026-05-05 01:47 | 38.69900 | -85.00179 | 36175 ft | 468 kts | 33° |
| 2026-05-05 01:47 | 38.72451 | -84.97678 | 35667 ft | 467 kts | 33° |
| 2026-05-05 01:47 | 38.75024 | -84.95154 | 35179 ft | 466 kts | 33° |
| 2026-05-05 01:48 | 38.77597 | -84.92629 | 34679 ft | 467 kts | 34° |
| 2026-05-05 01:48 | 38.80180 | -84.90090 | 34218 ft | 469 kts | 34° |
| 2026-05-05 01:48 | 38.82780 | -84.87533 | 33731 ft | 472 kts | 34° |
| 2026-05-05 01:48 | 38.85397 | -84.84956 | 33187 ft | 476 kts | 34° |
| 2026-05-05 01:49 | 38.88055 | -84.82338 | 32653 ft | 485 kts | 34° |
| 2026-05-05 01:49 | 38.90722 | -84.79704 | 32133 ft | 482 kts | 34° |
| 2026-05-05 01:49 | 38.93368 | -84.77087 | 31617 ft | 479 kts | 34° |
| 2026-05-05 01:49 | 38.96005 | -84.74483 | 31108 ft | 477 kts | 34° |
| 2026-05-05 01:50 | 38.98638 | -84.71881 | 30610 ft | 478 kts | 33° |
| 2026-05-05 01:50 | 39.01234 | -84.69162 | 30129 ft | 485 kts | 39° |
| 2026-05-05 01:50 | 39.03522 | -84.65957 | 29602 ft | 490 kts | 48° |
| 2026-05-05 01:50 | 39.05530 | -84.62424 | 29040 ft | 485 kts | 51° |
| 2026-05-05 01:51 | 39.07468 | -84.58963 | 28495 ft | 480 kts | 51° |
| 2026-05-05 01:51 | 39.09421 | -84.55504 | 27952 ft | 475 kts | 51° |
| 2026-05-05 01:51 | 39.11357 | -84.52075 | 27418 ft | 472 kts | 51° |
| 2026-05-05 01:51 | 39.13279 | -84.48653 | 26896 ft | 470 kts | 51° |
| 2026-05-05 01:52 | 39.15191 | -84.45238 | 26383 ft | 469 kts | 51° |
| 2026-05-05 01:52 | 39.17098 | -84.41837 | 25881 ft | 467 kts | 51° |
| 2026-05-05 01:52 | 39.19001 | -84.38442 | 25433 ft | 465 kts | 51° |
| 2026-05-05 01:52 | 39.20887 | -84.35071 | 25087 ft | 461 kts | 51° |
| 2026-05-05 01:53 | 39.22733 | -84.31765 | 24744 ft | 459 kts | 52° |
| 2026-05-05 01:53 | 39.24595 | -84.28431 | 24384 ft | 456 kts | 51° |
| 2026-05-05 01:53 | 39.26448 | -84.25108 | 24016 ft | 455 kts | 51° |
| 2026-05-05 01:53 | 39.28295 | -84.21794 | 23740 ft | 453 kts | 51° |
| 2026-05-05 01:54 | 39.29995 | -84.18376 | 23501 ft | 456 kts | 59° |
| 2026-05-05 01:54 | 39.31416 | -84.14679 | 22940 ft | 462 kts | 62° |
| 2026-05-05 01:54 | 39.32838 | -84.10968 | 22332 ft | 457 kts | 62° |
| 2026-05-05 01:54 | 39.34243 | -84.07327 | 21723 ft | 449 kts | 62° |
| 2026-05-05 01:55 | 39.35626 | -84.03741 | 21140 ft | 441 kts | 62° |
| 2026-05-05 01:55 | 39.36961 | -84.00256 | 20568 ft | 435 kts | 62° |
| 2026-05-05 01:55 | 39.38315 | -83.96719 | 19973 ft | 431 kts | 62° |
| 2026-05-05 01:55 | 39.39624 | -83.93303 | 19420 ft | 429 kts | 62° |
| 2026-05-05 01:56 | 39.40945 | -83.89852 | 18849 ft | 427 kts | 62° |
| 2026-05-05 01:56 | 39.42260 | -83.86409 | 18300 ft | 425 kts | 62° |
| 2026-05-05 01:56 | 39.43562 | -83.82993 | 17697 ft | 422 kts | 62° |
| 2026-05-05 01:56 | 39.44843 | -83.79628 | 17331 ft | 413 kts | 62° |
| 2026-05-05 01:57 | 39.46114 | -83.76295 | 16800 ft | 415 kts | 62° |
| 2026-05-05 01:57 | 39.47391 | -83.72941 | 16255 ft | 416 kts | 62° |
| 2026-05-05 01:57 | 39.48668 | -83.69575 | 15707 ft | 415 kts | 62° |
| 2026-05-05 01:57 | 39.49935 | -83.66234 | 15163 ft | 412 kts | 62° |
| 2026-05-05 01:58 | 39.51192 | -83.62917 | 14616 ft | 409 kts | 62° |
| 2026-05-05 01:58 | 39.52442 | -83.59618 | 14062 ft | 407 kts | 62° |
| 2026-05-05 01:58 | 39.53687 | -83.56326 | 13516 ft | 405 kts | 62° |
| 2026-05-05 01:58 | 39.54920 | -83.53060 | 12940 ft | 402 kts | 62° |
| 2026-05-05 01:59 | 39.56146 | -83.49810 | 12403 ft | 399 kts | 62° |
| 2026-05-05 01:59 | 39.57359 | -83.46594 | 11866 ft | 393 kts | 63° |
| 2026-05-05 01:59 | 39.58621 | -83.43589 | 11360 ft | 375 kts | 54° |
| 2026-05-05 01:59 | 39.60219 | -83.41032 | 10872 ft | 357 kts | 43° |
| 2026-05-05 02:00 | 39.62049 | -83.38962 | 10423 ft | 341 kts | 33° |
| 2026-05-05 02:00 | 39.63905 | -83.37100 | 9959 ft | 332 kts | 33° |
| 2026-05-05 02:00 | 39.65699 | -83.35277 | 9499 ft | 324 kts | 33° |
| 2026-05-05 02:00 | 39.67450 | -83.33493 | 9055 ft | 316 kts | 33° |
| 2026-05-05 02:01 | 39.69167 | -83.31751 | 8633 ft | 310 kts | 34° |
| 2026-05-05 02:01 | 39.70852 | -83.30042 | 8223 ft | 305 kts | 34° |
| 2026-05-05 02:01 | 39.72547 | -83.28479 | 7821 ft | 300 kts | 24° |
| 2026-05-05 02:01 | 39.74435 | -83.27369 | 7424 ft | 298 kts | 18° |
| 2026-05-05 02:02 | 39.76339 | -83.26281 | 7028 ft | 300 kts | 19° |
| 2026-05-05 02:02 | 39.78248 | -83.25164 | 6623 ft | 301 kts | 19° |
| 2026-05-05 02:02 | 39.80161 | -83.24052 | 6218 ft | 301 kts | 19° |
| 2026-05-05 02:02 | 39.82072 | -83.22952 | 5800 ft | 300 kts | 19° |
| 2026-05-05 02:03 | 39.83969 | -83.21855 | 5404 ft | 297 kts | 19° |
| 2026-05-05 02:03 | 39.85854 | -83.20762 | 5027 ft | 294 kts | 18° |
| 2026-05-05 02:03 | 39.87792 | -83.19639 | 5015 ft | 309 kts | 19° |
| 2026-05-05 02:03 | 39.89678 | -83.18405 | 5007 ft | 299 kts | 28° |
| 2026-05-05 02:04 | 39.91297 | -83.16831 | 4998 ft | 282 kts | 33° |
| 2026-05-05 02:04 | 39.92829 | -83.15338 | 4933 ft | 269 kts | 32° |
| 2026-05-05 02:04 | 39.94320 | -83.13905 | 4719 ft | 264 kts | 32° |
| 2026-05-05 02:04 | 39.95755 | -83.12472 | 4477 ft | 249 kts | 34° |
| 2026-05-05 02:05 | 39.97036 | -83.11096 | 4119 ft | 230 kts | 36° |
| 2026-05-05 02:05 | 39.98245 | -83.09792 | 3774 ft | 222 kts | 36° |
| 2026-05-05 02:05 | 39.99333 | -83.08372 | 3482 ft | 223 kts | 56° |
| 2026-05-05 02:05 | 39.99963 | -83.06612 | 3292 ft | 205 kts | 79° |
| 2026-05-05 02:06 | 40.00114 | -83.04864 | 3291 ft | 191 kts | 101° |
| 2026-05-05 02:06 | 40.00049 | -83.03076 | 3127 ft | 193 kts | 100° |
| 2026-05-05 02:06 | 39.99996 | -83.01395 | 2804 ft | 182 kts | 101° |
| 2026-05-05 02:06 | 39.99938 | -82.99860 | 2515 ft | 161 kts | 103° |
| 2026-05-05 02:07 | 39.99819 | -82.98462 | 2156 ft | 149 kts | 108° |
| 2026-05-05 02:07 | 39.99717 | -82.97154 | 1829 ft | 143 kts | 105° |
| 2026-05-05 02:07 | 39.99620 | -82.95888 | 1627 ft | 138 kts | 103° |
| 2026-05-05 02:07 | 39.99560 | -82.94673 | 1469 ft | 131 kts | 98° |
| 2026-05-05 02:08 | 39.99504 | -82.93503 | 1255 ft | 128 kts | 99° |
| 2026-05-05 02:08 | 39.99438 | -82.92397 | 1079 ft | 120 kts | 98° |
| 2026-05-05 02:08 | 39.99383 | -82.91303 | 904 ft | 121 kts | 96° |
| 2026-05-05 02:08 | 39.99332 | -82.90262 | 823 ft | 101 kts | 99° |
| 2026-05-05 02:09 | 39.99286 | -82.89537 | 817 ft | 57 kts | 95° |
| 2026-05-05 02:09 | 39.99262 | -82.89104 | 817 ft | 38 kts | 94° |
| 2026-05-05 02:09 | 39.99266 | -82.88789 | 816 ft | 22 kts | 78° |
| 2026-05-05 02:09 | 39.99314 | -82.88599 | 817 ft | 22 kts | 63° |
| 2026-05-05 02:10 | 39.99386 | -82.88406 | 812 ft | 21 kts | 66° |
| 2026-05-05 02:10 | 39.99459 | -82.88325 | 814 ft | 16 kts | 4° |
| 2026-05-05 02:10 | 39.99565 | -82.88334 | 813 ft | 14 kts | 322° |
| 2026-05-05 02:10 | 39.99590 | -82.88467 | 813 ft | 17 kts | 274° |
| 2026-05-05 02:11 | 39.99597 | -82.88633 | 813 ft | 20 kts | 272° |
| 2026-05-05 02:11 | 39.99613 | -82.88827 | 814 ft | 23 kts | 273° |
| 2026-05-05 02:11 | 39.99621 | -82.89029 | 817 ft | 8 kts | 290° |
| 2026-05-05 02:11 | 39.99651 | -82.89091 | 818 ft | 9 kts | 304° |
| 2026-05-05 02:12 | 39.99678 | -82.89140 | 819 ft | 0 kts | 305° |